sensor_id;sensor_type;location;lat;lon;timestamp;pressure;altitude;pressure_sealevel;temperature;humidity
19447;BME280;9862;49.462;11.054;2023-10-19T00:00:49;96621.41;;;12.18;100.00
19447;BME280;9862;49.462;11.054;2023-10-19T00:03:18;96609.84;;;12.07;100.00
19447;BME280;9862;49.462;11.054;2023-10-19T00:05:45;96613.34;;;12.13;100.00
19447;BME280;9862;49.462;11.054;2023-10-19T00:08:12;96602.59;;;12.02;100.00
19447;BME280;9862;49.462;11.054;2023-10-19T00:10:45;96592.72;;;12.03;100.00
19447;BME280;9862;49.462;11.054;2023-10-19T00:13:14;96598.25;;;11.96;100.00
19447;BME280;9862;49.462;11.054;2023-10-19T00:15:40;96590.78;;;11.93;100.00
19447;BME280;9862;49.462;11.054;2023-10-19T00:18:13;96584.34;;;11.89;100.00
19447;BME280;9862;49.462;11.054;2023-10-19T00:20:51;96580.88;;;11.89;100.00
19447;BME280;9862;49.462;11.054;2023-10-19T00:23:20;96580.38;;;11.92;100.00
19447;BME280;9862;49.462;11.054;2023-10-19T00:26:04;96585.19;;;11.95;100.00
19447;BME280;9862;49.462;11.054;2023-10-19T00:28:35;96571.91;;;12.00;100.00
19447;BME280;9862;49.462;11.054;2023-10-19T00:31:05;96569.78;;;12.02;100.00
19447;BME280;9862;49.462;11.054;2023-10-19T00:33:33;96575.41;;;12.06;100.00
19447;BME280;9862;49.462;11.054;2023-10-19T00:36:04;96571.44;;;12.08;100.00
19447;BME280;9862;49.462;11.054;2023-10-19T00:38:32;96572.38;;;12.24;100.00
19447;BME280;9862;49.462;11.054;2023-10-19T00:41:17;96573.41;;;12.18;100.00
19447;BME280;9862;49.462;11.054;2023-10-19T00:43:47;96572.75;;;12.06;100.00
19447;BME280;9862;49.462;11.054;2023-10-19T00:46:23;96569.53;;;12.03;100.00
19447;BME280;9862;49.462;11.054;2023-10-19T00:48:57;96567.66;;;12.04;100.00
19447;BME280;9862;49.462;11.054;2023-10-19T00:51:29;96562.66;;;12.08;100.00
19447;BME280;9862;49.462;11.054;2023-10-19T00:54:07;96564.81;;;12.11;100.00
19447;BME280;9862;49.462;11.054;2023-10-19T00:56:35;96554.16;;;12.16;100.00
19447;BME280;9862;49.462;11.054;2023-10-19T00:59:06;96543.50;;;12.16;100.00
19447;BME280;9862;49.462;11.054;2023-10-19T01:01:40;96548.34;;;12.19;100.00
19447;BME280;9862;49.462;11.054;2023-10-19T01:04:09;96558.47;;;12.22;100.00
19447;BME280;9862;49.462;11.054;2023-10-19T01:06:41;96551.53;;;12.21;100.00
19447;BME280;9862;49.462;11.054;2023-10-19T01:09:16;96537.44;;;12.25;100.00
19447;BME280;9862;49.462;11.054;2023-10-19T01:11:46;96543.81;;;12.24;100.00
19447;BME280;9862;49.462;11.054;2023-10-19T01:14:18;96547.88;;;12.27;100.00
19447;BME280;9862;49.462;11.054;2023-10-19T01:16:46;96551.88;;;12.29;100.00
19447;BME280;9862;49.462;11.054;2023-10-19T01:19:14;96537.44;;;12.25;100.00
19447;BME280;9862;49.462;11.054;2023-10-19T01:21:45;96525.16;;;12.24;100.00
19447;BME280;9862;49.462;11.054;2023-10-19T01:24:18;96526.22;;;12.23;100.00
19447;BME280;9862;49.462;11.054;2023-10-19T01:26:52;96528.09;;;12.23;100.00
19447;BME280;9862;49.462;11.054;2023-10-19T01:29:22;96526.75;;;12.25;100.00
19447;BME280;9862;49.462;11.054;2023-10-19T01:31:53;96517.47;;;12.28;100.00
19447;BME280;9862;49.462;11.054;2023-10-19T01:34:31;96519.06;;;12.29;100.00
19447;BME280;9862;49.462;11.054;2023-10-19T01:36:59;96520.75;;;12.40;100.00
19447;BME280;9862;49.462;11.054;2023-10-19T01:39:31;96516.13;;;12.30;100.00
19447;BME280;9862;49.462;11.054;2023-10-19T01:41:57;96519.69;;;12.41;100.00
19447;BME280;9862;49.462;11.054;2023-10-19T01:44:23;96510.25;;;12.28;100.00
19447;BME280;9862;49.462;11.054;2023-10-19T01:46:51;96506.25;;;12.26;100.00
19447;BME280;9862;49.462;11.054;2023-10-19T01:49:17;96511.59;;;12.26;100.00
19447;BME280;9862;49.462;11.054;2023-10-19T01:51:51;96495.75;;;12.14;100.00
19447;BME280;9862;49.462;11.054;2023-10-19T01:54:17;96491.16;;;12.04;100.00
19447;BME280;9862;49.462;11.054;2023-10-19T01:56:51;96488.06;;;12.18;100.00
19447;BME280;9862;49.462;11.054;2023-10-19T01:59:20;96488.75;;;12.03;100.00
19447;BME280;9862;49.462;11.054;2023-10-19T02:01:47;96477.47;;;11.96;100.00
19447;BME280;9862;49.462;11.054;2023-10-19T02:04:14;96481.84;;;12.07;100.00
19447;BME280;9862;49.462;11.054;2023-10-19T02:06:42;96469.19;;;11.92;100.00
19447;BME280;9862;49.462;11.054;2023-10-19T02:09:07;96464.06;;;11.86;100.00
19447;BME280;9862;49.462;11.054;2023-10-19T02:11:47;96457.94;;;11.85;100.00
19447;BME280;9862;49.462;11.054;2023-10-19T02:14:16;96441.69;;;11.87;100.00
19447;BME280;9862;49.462;11.054;2023-10-19T02:16:44;96436.63;;;11.85;100.00
19447;BME280;9862;49.462;11.054;2023-10-19T02:19:12;96449.41;;;11.83;100.00
19447;BME280;9862;49.462;11.054;2023-10-19T02:21:38;96451.00;;;11.84;100.00
19447;BME280;9862;49.462;11.054;2023-10-19T02:24:06;96463.28;;;11.85;100.00
19447;BME280;9862;49.462;11.054;2023-10-19T02:26:32;96461.63;;;11.79;100.00
19447;BME280;9862;49.462;11.054;2023-10-19T02:28:59;96455.28;;;11.85;100.00
19447;BME280;9862;49.462;11.054;2023-10-19T02:31:27;96457.69;;;11.87;100.00
19447;BME280;9862;49.462;11.054;2023-10-19T02:33:54;96457.44;;;11.88;100.00
19447;BME280;9862;49.462;11.054;2023-10-19T02:36:24;96448.88;;;11.86;100.00
19447;BME280;9862;49.462;11.054;2023-10-19T02:38:54;96450.53;;;11.87;100.00
19447;BME280;9862;49.462;11.054;2023-10-19T02:41:19;96440.97;;;11.96;100.00
19447;BME280;9862;49.462;11.054;2023-10-19T02:43:47;96441.78;;;11.97;100.00
19447;BME280;9862;49.462;11.054;2023-10-19T02:46:28;96448.75;;;12.03;100.00
19447;BME280;9862;49.462;11.054;2023-10-19T02:48:55;96458.47;;;12.19;100.00
19447;BME280;9862;49.462;11.054;2023-10-19T02:51:20;96470.94;;;12.14;100.00
19447;BME280;9862;49.462;11.054;2023-10-19T02:53:48;96468.28;;;12.14;100.00
19447;BME280;9862;49.462;11.054;2023-10-19T02:56:14;96456.00;;;12.08;100.00
19447;BME280;9862;49.462;11.054;2023-10-19T02:58:42;96458.09;;;12.06;100.00
19447;BME280;9862;49.462;11.054;2023-10-19T03:01:11;96458.09;;;12.06;100.00
19447;BME280;9862;49.462;11.054;2023-10-19T03:03:40;96450.09;;;12.06;100.00
19447;BME280;9862;49.462;11.054;2023-10-19T03:06:09;96464.47;;;12.04;100.00
19447;BME280;9862;49.462;11.054;2023-10-19T03:08:36;96462.94;;;12.09;100.00
19447;BME280;9862;49.462;11.054;2023-10-19T03:11:02;96462.13;;;12.08;100.00
19447;BME280;9862;49.462;11.054;2023-10-19T03:13:30;96447.72;;;12.09;100.00
19447;BME280;9862;49.462;11.054;2023-10-19T03:15:58;96443.19;;;12.10;100.00
19447;BME280;9862;49.462;11.054;2023-10-19T03:18:25;96445.41;;;12.23;100.00
19447;BME280;9862;49.462;11.054;2023-10-19T03:20:52;96443.25;;;12.20;100.00
19447;BME280;9862;49.462;11.054;2023-10-19T03:23:19;96448.81;;;12.13;100.00
19447;BME280;9862;49.462;11.054;2023-10-19T03:25:52;96436.25;;;12.09;100.00
19447;BME280;9862;49.462;11.054;2023-10-19T03:28:32;96429.31;;;12.08;100.00
19447;BME280;9862;49.462;11.054;2023-10-19T03:31:00;96420.00;;;12.15;100.00
19447;BME280;9862;49.462;11.054;2023-10-19T03:33:27;96414.13;;;12.08;100.00
19447;BME280;9862;49.462;11.054;2023-10-19T03:35:56;96409.38;;;12.20;100.00
19447;BME280;9862;49.462;11.054;2023-10-19T03:38:22;96398.19;;;12.18;100.00
19447;BME280;9862;49.462;11.054;2023-10-19T03:40:50;96405.06;;;12.09;100.00
19447;BME280;9862;49.462;11.054;2023-10-19T03:43:25;96406.38;;;12.07;100.00
19447;BME280;9862;49.462;11.054;2023-10-19T03:45:53;96406.09;;;12.03;100.00
19447;BME280;9862;49.462;11.054;2023-10-19T03:48:21;96405.28;;;12.02;100.00
19447;BME280;9862;49.462;11.054;2023-10-19T03:50:52;96394.06;;;12.00;100.00
19447;BME280;9862;49.462;11.054;2023-10-19T03:53:22;96400.97;;;11.96;100.00
19447;BME280;9862;49.462;11.054;2023-10-19T03:55:49;96394.84;;;11.96;100.00
19447;BME280;9862;49.462;11.054;2023-10-19T03:58:17;96371.63;;;11.96;100.00
19447;BME280;9862;49.462;11.054;2023-10-19T04:00:45;96368.47;;;11.99;100.00
19447;BME280;9862;49.462;11.054;2023-10-19T04:03:14;96366.34;;;12.01;100.00
19447;BME280;9862;49.462;11.054;2023-10-19T04:05:40;96373.28;;;12.02;100.00
19447;BME280;9862;49.462;11.054;2023-10-19T04:08:12;96364.22;;;12.03;100.00
19447;BME280;9862;49.462;11.054;2023-10-19T04:10:42;96370.66;;;12.08;100.00
19447;BME280;9862;49.462;11.054;2023-10-19T04:13:12;96369.88;;;12.07;100.00
19447;BME280;9862;49.462;11.054;2023-10-19T04:15:39;96360.53;;;12.10;100.00
19447;BME280;9862;49.462;11.054;2023-10-19T04:18:07;96366.97;;;12.19;100.00
19447;BME280;9862;49.462;11.054;2023-10-19T04:20:37;96356.81;;;12.16;100.00
19447;BME280;9862;49.462;11.054;2023-10-19T04:23:20;96356.25;;;12.09;100.00
19447;BME280;9862;49.462;11.054;2023-10-19T04:25:49;96357.81;;;12.04;100.00
19447;BME280;9862;49.462;11.054;2023-10-19T04:28:16;96363.94;;;12.00;100.00
19447;BME280;9862;49.462;11.054;2023-10-19T04:30:56;96366.88;;;11.98;100.00
19447;BME280;9862;49.462;11.054;2023-10-19T04:33:25;96369.28;;;12.00;100.00
19447;BME280;9862;49.462;11.054;2023-10-19T04:35:54;96362.34;;;11.99;100.00
19447;BME280;9862;49.462;11.054;2023-10-19T04:38:25;96351.16;;;12.02;100.00
19447;BME280;9862;49.462;11.054;2023-10-19T04:40:53;96347.59;;;11.86;100.00
19447;BME280;9862;49.462;11.054;2023-10-19T04:43:21;96346.25;;;11.84;100.00
19447;BME280;9862;49.462;11.054;2023-10-19T04:45:48;96331.03;;;11.79;100.00
19447;BME280;9862;49.462;11.054;2023-10-19T04:48:15;96341.63;;;11.69;100.00
19447;BME280;9862;49.462;11.054;2023-10-19T04:50:41;96335.44;;;11.58;100.00
19447;BME280;9862;49.462;11.054;2023-10-19T04:53:08;96316.31;;;11.71;100.00
19447;BME280;9862;49.462;11.054;2023-10-19T04:55:34;96320.78;;;11.61;100.00
19447;BME280;9862;49.462;11.054;2023-10-19T04:58:03;96313.06;;;11.64;100.00
19447;BME280;9862;49.462;11.054;2023-10-19T05:00:31;96309.34;;;11.65;100.00
19447;BME280;9862;49.462;11.054;2023-10-19T05:02:59;96306.72;;;11.70;100.00
19447;BME280;9862;49.462;11.054;2023-10-19T05:05:27;96303.94;;;11.55;100.00
19447;BME280;9862;49.462;11.054;2023-10-19T05:07:54;96307.00;;;11.32;100.00
19447;BME280;9862;49.462;11.054;2023-10-19T05:10:21;96306.66;;;11.23;100.00
19447;BME280;9862;49.462;11.054;2023-10-19T05:12:48;96302.41;;;11.22;100.00
19447;BME280;9862;49.462;11.054;2023-10-19T05:15:16;96301.06;;;11.20;100.00
19447;BME280;9862;49.462;11.054;2023-10-19T05:17:43;96289.56;;;11.19;100.00
19447;BME280;9862;49.462;11.054;2023-10-19T05:20:11;96288.28;;;11.22;100.00
19447;BME280;9862;49.462;11.054;2023-10-19T05:22:37;96279.03;;;11.29;100.00
19447;BME280;9862;49.462;11.054;2023-10-19T05:25:04;96280.63;;;11.30;100.00
19447;BME280;9862;49.462;11.054;2023-10-19T05:27:33;96285.69;;;11.32;100.00
19447;BME280;9862;49.462;11.054;2023-10-19T05:30:00;96283.03;;;11.32;100.00
19447;BME280;9862;49.462;11.054;2023-10-19T05:32:29;96279.09;;;11.39;100.00
19447;BME280;9862;49.462;11.054;2023-10-19T05:34:55;96277.97;;;11.35;100.00
19447;BME280;9862;49.462;11.054;2023-10-19T05:37:23;96280.38;;;11.37;100.00
19447;BME280;9862;49.462;11.054;2023-10-19T05:39:50;96270.00;;;11.35;100.00
19447;BME280;9862;49.462;11.054;2023-10-19T05:42:17;96267.38;;;11.40;100.00
19447;BME280;9862;49.462;11.054;2023-10-19T05:44:46;96283.97;;;11.53;100.00
19447;BME280;9862;49.462;11.054;2023-10-19T05:47:13;96283.44;;;11.56;100.00
19447;BME280;9862;49.462;11.054;2023-10-19T05:49:41;96277.03;;;11.57;100.00
19447;BME280;9862;49.462;11.054;2023-10-19T05:52:08;96278.66;;;11.58;100.00
19447;BME280;9862;49.462;11.054;2023-10-19T05:54:35;96279.75;;;11.67;100.00
19447;BME280;9862;49.462;11.054;2023-10-19T05:57:03;96276.88;;;11.68;100.00
19447;BME280;9862;49.462;11.054;2023-10-19T05:59:34;96276.63;;;11.75;100.00
19447;BME280;9862;49.462;11.054;2023-10-19T06:02:00;96292.69;;;11.80;100.00
19447;BME280;9862;49.462;11.054;2023-10-19T06:04:27;96294.78;;;11.78;100.00
19447;BME280;9862;49.462;11.054;2023-10-19T06:06:58;96291.31;;;11.78;100.00
19447;BME280;9862;49.462;11.054;2023-10-19T06:09:25;96284.09;;;11.78;100.00
19447;BME280;9862;49.462;11.054;2023-10-19T06:11:54;96285.25;;;11.87;100.00
19447;BME280;9862;49.462;11.054;2023-10-19T06:14:21;96286.28;;;11.86;100.00
19447;BME280;9862;49.462;11.054;2023-10-19T06:16:48;96290.59;;;11.92;100.00
19447;BME280;9862;49.462;11.054;2023-10-19T06:19:15;96302.91;;;11.98;100.00
19447;BME280;9862;49.462;11.054;2023-10-19T06:21:42;96301.56;;;12.01;100.00
19447;BME280;9862;49.462;11.054;2023-10-19T06:24:10;96306.31;;;11.94;100.00
19447;BME280;9862;49.462;11.054;2023-10-19T06:26:41;96313.53;;;11.93;100.00
19447;BME280;9862;49.462;11.054;2023-10-19T06:29:08;96307.66;;;11.91;100.00
19447;BME280;9862;49.462;11.054;2023-10-19T06:31:35;96315.59;;;11.86;100.00
19447;BME280;9862;49.462;11.054;2023-10-19T06:34:02;96300.16;;;11.83;100.00
19447;BME280;9862;49.462;11.054;2023-10-19T06:36:30;96310.28;;;11.86;100.00
19447;BME280;9862;49.462;11.054;2023-10-19T06:38:56;96300.69;;;11.85;100.00
19447;BME280;9862;49.462;11.054;2023-10-19T06:41:24;96307.66;;;11.91;100.00
19447;BME280;9862;49.462;11.054;2023-10-19T06:43:52;96305.56;;;11.98;100.00
19447;BME280;9862;49.462;11.054;2023-10-19T06:46:19;96254.81;;;13.17;100.00
19447;BME280;9862;49.462;11.054;2023-10-19T06:48:46;96264.09;;;13.65;100.00
19447;BME280;9862;49.462;11.054;2023-10-19T06:51:13;96273.91;;;14.55;100.00
19447;BME280;9862;49.462;11.054;2023-10-19T06:53:42;96289.00;;;14.85;100.00
19447;BME280;9862;49.462;11.054;2023-10-19T06:56:09;96295.75;;;15.11;100.00
19447;BME280;9862;49.462;11.054;2023-10-19T06:58:38;96300.38;;;15.06;100.00
19447;BME280;9862;49.462;11.054;2023-10-19T07:01:07;96304.66;;;14.63;100.00
19447;BME280;9862;49.462;11.054;2023-10-19T07:03:33;96308.06;;;14.19;100.00
19447;BME280;9862;49.462;11.054;2023-10-19T07:06:00;96298.81;;;13.86;100.00
19447;BME280;9862;49.462;11.054;2023-10-19T07:08:28;96303.44;;;13.55;100.00
19447;BME280;9862;49.462;11.054;2023-10-19T07:10:55;96314.41;;;13.33;100.00
19447;BME280;9862;49.462;11.054;2023-10-19T07:13:23;96316.81;;;13.19;100.00
19447;BME280;9862;49.462;11.054;2023-10-19T07:15:50;96306.09;;;13.09;100.00
19447;BME280;9862;49.462;11.054;2023-10-19T07:18:17;96291.91;;;12.93;100.00
19447;BME280;9862;49.462;11.054;2023-10-19T07:20:44;96304.22;;;12.94;100.00
19447;BME280;9862;49.462;11.054;2023-10-19T07:23:15;96313.00;;;12.79;100.00
19447;BME280;9862;49.462;11.054;2023-10-19T07:25:45;96318.06;;;12.81;100.00
19447;BME280;9862;49.462;11.054;2023-10-19T07:28:13;96330.34;;;12.77;100.00
19447;BME280;9862;49.462;11.054;2023-10-19T07:30:40;96326.34;;;12.74;100.00
19447;BME280;9862;49.462;11.054;2023-10-19T07:33:09;96314.84;;;12.69;100.00
19447;BME280;9862;49.462;11.054;2023-10-19T07:35:36;96315.94;;;12.68;100.00
19447;BME280;9862;49.462;11.054;2023-10-19T07:38:04;96312.72;;;12.66;100.00
19447;BME280;9862;49.462;11.054;2023-10-19T07:40:32;96321.78;;;12.70;100.00
19447;BME280;9862;49.462;11.054;2023-10-19T07:43:00;96311.66;;;12.72;100.00
19447;BME280;9862;49.462;11.054;2023-10-19T07:45:29;96315.13;;;12.72;100.00
19447;BME280;9862;49.462;11.054;2023-10-19T07:47:57;96314.84;;;12.64;100.00
19447;BME280;9862;49.462;11.054;2023-10-19T07:50:33;96305.78;;;12.65;100.00
19447;BME280;9862;49.462;11.054;2023-10-19T07:53:00;96304.44;;;12.67;100.00
19447;BME280;9862;49.462;11.054;2023-10-19T07:55:27;96289.78;;;12.75;100.00
19447;BME280;9862;49.462;11.054;2023-10-19T07:57:54;96291.38;;;12.81;100.00
19447;BME280;9862;49.462;11.054;2023-10-19T08:00:22;96286.59;;;12.88;100.00
19447;BME280;9862;49.462;11.054;2023-10-19T08:02:50;96279.66;;;12.87;100.00
19447;BME280;9862;49.462;11.054;2023-10-19T08:05:17;96282.06;;;12.94;100.00
19447;BME280;9862;49.462;11.054;2023-10-19T08:07:45;96273.25;;;13.03;100.00
19447;BME280;9862;49.462;11.054;2023-10-19T08:10:14;96282.56;;;13.11;100.00
19447;BME280;9862;49.462;11.054;2023-10-19T08:12:41;96284.72;;;13.14;100.00
19447;BME280;9862;49.462;11.054;2023-10-19T08:15:09;96289.25;;;13.18;100.00
19447;BME280;9862;49.462;11.054;2023-10-19T08:17:37;96291.66;;;13.10;100.00
19447;BME280;9862;49.462;11.054;2023-10-19T08:20:05;96291.16;;;13.03;100.00
19447;BME280;9862;49.462;11.054;2023-10-19T08:22:34;96283.91;;;12.98;100.00
19447;BME280;9862;49.462;11.054;2023-10-19T08:25:03;96279.66;;;12.97;100.00
19447;BME280;9862;49.462;11.054;2023-10-19T08:27:36;96285.53;;;13.04;100.00
19447;BME280;9862;49.462;11.054;2023-10-19T08:30:05;96266.84;;;13.04;100.00
19447;BME280;9862;49.462;11.054;2023-10-19T08:32:34;96277.78;;;13.08;100.00
19447;BME280;9862;49.462;11.054;2023-10-19T08:35:01;96280.97;;;13.10;100.00
19447;BME280;9862;49.462;11.054;2023-10-19T08:37:27;96273.78;;;13.15;100.00
19447;BME280;9862;49.462;11.054;2023-10-19T08:39:54;96260.41;;;13.31;100.00
19447;BME280;9862;49.462;11.054;2023-10-19T08:42:22;96269.78;;;13.33;100.00
19447;BME280;9862;49.462;11.054;2023-10-19T08:44:49;96265.50;;;13.27;100.00
19447;BME280;9862;49.462;11.054;2023-10-19T08:47:16;96267.91;;;13.29;100.00
19447;BME280;9862;49.462;11.054;2023-10-19T08:49:43;96263.63;;;13.28;100.00
19447;BME280;9862;49.462;11.054;2023-10-19T08:52:10;96266.03;;;13.29;100.00
19447;BME280;9862;49.462;11.054;2023-10-19T08:54:38;96263.38;;;13.34;100.00
19447;BME280;9862;49.462;11.054;2023-10-19T08:57:05;96266.84;;;13.35;100.00
19447;BME280;9862;49.462;11.054;2023-10-19T08:59:35;96271.13;;;13.36;100.00
19447;BME280;9862;49.462;11.054;2023-10-19T09:02:03;96267.91;;;13.34;100.00
19447;BME280;9862;49.462;11.054;2023-10-19T09:04:32;96262.81;;;13.37;100.00
19447;BME280;9862;49.462;11.054;2023-10-19T09:06:58;96259.38;;;13.42;100.00
19447;BME280;9862;49.462;11.054;2023-10-19T09:09:33;96267.63;;;13.45;100.00
19447;BME280;9862;49.462;11.054;2023-10-19T09:12:02;96268.69;;;13.50;100.00
19447;BME280;9862;49.462;11.054;2023-10-19T09:14:30;96258.78;;;13.55;100.00
19447;BME280;9862;49.462;11.054;2023-10-19T09:17:00;96259.31;;;13.62;100.00
19447;BME280;9862;49.462;11.054;2023-10-19T09:19:35;96263.28;;;13.75;100.00
19447;BME280;9862;49.462;11.054;2023-10-19T09:22:03;96257.94;;;13.80;100.00
19447;BME280;9862;49.462;11.054;2023-10-19T09:24:33;96245.56;;;13.94;100.00
19447;BME280;9862;49.462;11.054;2023-10-19T09:27:01;96258.94;;;13.99;100.00
19447;BME280;9862;49.462;11.054;2023-10-19T09:29:28;96257.59;;;13.97;100.00
19447;BME280;9862;49.462;11.054;2023-10-19T09:31:55;96268.28;;;13.97;100.00
19447;BME280;9862;49.462;11.054;2023-10-19T09:34:23;96270.44;;;13.95;100.00
19447;BME280;9862;49.462;11.054;2023-10-19T09:36:57;96267.75;;;14.00;100.00
19447;BME280;9862;49.462;11.054;2023-10-19T09:39:27;96256.50;;;14.03;100.00
19447;BME280;9862;49.462;11.054;2023-10-19T09:41:59;96256.72;;;14.12;100.00
19447;BME280;9862;49.462;11.054;2023-10-19T09:44:27;96273.59;;;14.12;100.00
19447;BME280;9862;49.462;11.054;2023-10-19T09:46:56;96274.09;;;14.14;100.00
19447;BME280;9862;49.462;11.054;2023-10-19T09:49:25;96270.91;;;14.12;100.00
19447;BME280;9862;49.462;11.054;2023-10-19T09:51:54;96275.97;;;14.14;100.00
19447;BME280;9862;49.462;11.054;2023-10-19T09:54:22;96255.94;;;14.11;100.00
19447;BME280;9862;49.462;11.054;2023-10-19T09:56:55;96232.94;;;14.10;100.00
19447;BME280;9862;49.462;11.054;2023-10-19T09:59:28;96218.97;;;14.18;100.00
19447;BME280;9862;49.462;11.054;2023-10-19T10:02:06;96224.06;;;14.20;100.00
19447;BME280;9862;49.462;11.054;2023-10-19T10:04:36;96199.13;;;14.24;100.00
19447;BME280;9862;49.462;11.054;2023-10-19T10:07:04;96228.50;;;14.35;100.00
19447;BME280;9862;49.462;11.054;2023-10-19T10:09:31;96222.88;;;14.36;100.00
19447;BME280;9862;49.462;11.054;2023-10-19T10:12:18;96209.25;;;14.32;100.00
19447;BME280;9862;49.462;11.054;2023-10-19T10:14:58;96213.25;;;14.35;100.00
19447;BME280;9862;49.462;11.054;2023-10-19T10:17:26;96214.56;;;14.38;100.00
19447;BME280;9862;49.462;11.054;2023-10-19T10:19:55;96198.56;;;14.32;100.00
19447;BME280;9862;49.462;11.054;2023-10-19T10:22:25;96193.72;;;14.35;100.00
19447;BME280;9862;49.462;11.054;2023-10-19T10:24:53;96198.16;;;14.54;100.00
19447;BME280;9862;49.462;11.054;2023-10-19T10:27:21;96210.25;;;14.52;100.00
19447;BME280;9862;49.462;11.054;2023-10-19T10:29:53;96197.66;;;14.47;100.00
19447;BME280;9862;49.462;11.054;2023-10-19T10:35:14;96189.94;;;14.46;100.00
19447;BME280;9862;49.462;11.054;2023-10-19T10:38:03;96193.88;;;14.58;100.00
19447;BME280;9862;49.462;11.054;2023-10-19T10:40:30;96186.66;;;14.54;100.00
19447;BME280;9862;49.462;11.054;2023-10-19T10:43:04;96186.66;;;14.54;100.00
19447;BME280;9862;49.462;11.054;2023-10-19T10:45:31;96175.94;;;14.54;100.00
19447;BME280;9862;49.462;11.054;2023-10-19T10:47:58;96172.72;;;14.57;100.00
19447;BME280;9862;49.462;11.054;2023-10-19T10:50:27;96173.16;;;14.69;100.00
19447;BME280;9862;49.462;11.054;2023-10-19T10:52:55;96176.94;;;14.68;100.00
19447;BME280;9862;49.462;11.054;2023-10-19T10:55:23;96166.22;;;14.68;100.00
19447;BME280;9862;49.462;11.054;2023-10-19T10:57:51;96171.50;;;14.78;100.00
19447;BME280;9862;49.462;11.054;2023-10-19T11:00:20;96165.56;;;14.81;100.00
19447;BME280;9862;49.462;11.054;2023-10-19T11:02:59;96173.00;;;14.89;100.00
19447;BME280;9862;49.462;11.054;2023-10-19T11:05:25;96180.97;;;14.95;100.00
19447;BME280;9862;49.462;11.054;2023-10-19T11:08:04;96181.75;;;14.95;100.00
19447;BME280;9862;49.462;11.054;2023-10-19T11:10:32;96170.00;;;14.96;100.00
19447;BME280;9862;49.462;11.054;2023-10-19T11:13:02;96169.66;;;15.03;100.00
19447;BME280;9862;49.462;11.054;2023-10-19T11:15:29;96166.94;;;15.08;100.00
19447;BME280;9862;49.462;11.054;2023-10-19T11:17:55;96169.25;;;15.14;100.00
19447;BME280;9862;49.462;11.054;2023-10-19T11:20:23;96158.78;;;15.18;100.00
19447;BME280;9862;49.462;11.054;2023-10-19T11:22:50;96152.84;;;15.21;100.00
19447;BME280;9862;49.462;11.054;2023-10-19T11:25:18;96159.81;;;15.22;100.00
19447;BME280;9862;49.462;11.054;2023-10-19T11:27:46;96154.16;;;15.24;100.00
19447;BME280;9862;49.462;11.054;2023-10-19T11:30:13;96143.97;;;15.26;100.00
19447;BME280;9862;49.462;11.054;2023-10-19T11:32:49;96149.09;;;15.22;100.00
19447;BME280;9862;49.462;11.054;2023-10-19T11:35:19;96146.69;;;15.21;100.00
19447;BME280;9862;49.462;11.054;2023-10-19T11:37:48;96141.56;;;15.24;100.00
19447;BME280;9862;49.462;11.054;2023-10-19T11:40:15;96145.28;;;15.28;100.00
19447;BME280;9862;49.462;11.054;2023-10-19T11:42:43;96144.88;;;15.40;100.00
19447;BME280;9862;49.462;11.054;2023-10-19T11:45:10;96131.66;;;15.49;100.00
19447;BME280;9862;49.462;11.054;2023-10-19T11:47:38;96128.69;;;15.50;100.00
19447;BME280;9862;49.462;11.054;2023-10-19T11:50:05;96129.47;;;15.51;100.00
19447;BME280;9862;49.462;11.054;2023-10-19T11:52:32;96124.69;;;15.48;100.00
19447;BME280;9862;49.462;11.054;2023-10-19T11:54:58;96126.28;;;15.49;100.00
19447;BME280;9862;49.462;11.054;2023-10-19T11:57:27;96119.00;;;15.54;100.00
19447;BME280;9862;49.462;11.054;2023-10-19T11:59:55;96114.94;;;15.57;100.00
19447;BME280;9862;49.462;11.054;2023-10-19T12:02:22;96117.03;;;15.60;100.00
19447;BME280;9862;49.462;11.054;2023-10-19T12:04:50;96111.34;;;15.66;100.00
19447;BME280;9862;49.462;11.054;2023-10-19T12:07:18;96117.00;;;15.65;100.00
19447;BME280;9862;49.462;11.054;2023-10-19T12:09:44;96113.09;;;15.76;100.00
19447;BME280;9862;49.462;11.054;2023-10-19T12:12:12;96113.44;;;15.69;100.00
19447;BME280;9862;49.462;11.054;2023-10-19T12:14:38;96104.91;;;15.67;100.00
19447;BME280;9862;49.462;11.054;2023-10-19T12:17:06;96105.69;;;15.68;100.00
19447;BME280;9862;49.462;11.054;2023-10-19T12:19:34;96109.97;;;15.69;100.00
19447;BME280;9862;49.462;11.054;2023-10-19T12:22:00;96109.53;;;15.81;100.00
19447;BME280;9862;49.462;11.054;2023-10-19T12:24:28;96104.47;;;15.79;100.00
19447;BME280;9862;49.462;11.054;2023-10-19T12:26:54;96095.56;;;15.84;100.00
19447;BME280;9862;49.462;11.054;2023-10-19T12:29:21;96103.88;;;15.82;100.00
19447;BME280;9862;49.462;11.054;2023-10-19T12:31:49;96099.06;;;15.84;100.00
19447;BME280;9862;49.462;11.054;2023-10-19T12:34:17;96103.63;;;15.84;100.00
19447;BME280;9862;49.462;11.054;2023-10-19T12:36:44;96105.28;;;15.80;100.00
19447;BME280;9862;49.462;11.054;2023-10-19T12:39:12;96103.47;;;15.75;100.00
19447;BME280;9862;49.462;11.054;2023-10-19T12:42:00;96102.09;;;15.78;100.00
19447;BME280;9862;49.462;11.054;2023-10-19T12:44:28;96099.41;;;15.78;100.00
19447;BME280;9862;49.462;11.054;2023-10-19T12:47:02;96090.47;;;15.82;100.00
19447;BME280;9862;49.462;11.054;2023-10-19T12:49:36;96094.41;;;15.90;100.00
19447;BME280;9862;49.462;11.054;2023-10-19T12:52:02;96095.56;;;15.84;100.00
19447;BME280;9862;49.462;11.054;2023-10-19T12:54:29;96089.97;;;15.80;100.00
19447;BME280;9862;49.462;11.054;2023-10-19T12:56:56;96097.72;;;15.82;100.00
19447;BME280;9862;49.462;11.054;2023-10-19T12:59:23;96098.75;;;15.86;100.00
19447;BME280;9862;49.462;11.054;2023-10-19T13:01:50;96097.31;;;15.93;100.00